sensor_id;sensor_type;location;lat;lon;timestamp;temperature;humidity
21830;DHT22;11077;50.264;6.798;2022-08-21T00:02:25;12.50;99.90
21830;DHT22;11077;50.264;6.798;2022-08-21T00:04:55;12.40;99.90
21830;DHT22;11077;50.264;6.798;2022-08-21T00:07:27;12.40;99.90
21830;DHT22;11077;50.264;6.798;2022-08-21T00:09:54;12.30;99.90
21830;DHT22;11077;50.264;6.798;2022-08-21T00:12:22;12.30;99.90
21830;DHT22;11077;50.264;6.798;2022-08-21T00:14:49;12.30;99.90
21830;DHT22;11077;50.264;6.798;2022-08-21T00:17:17;12.30;99.90
21830;DHT22;11077;50.264;6.798;2022-08-21T00:19:46;12.30;99.90
21830;DHT22;11077;50.264;6.798;2022-08-21T00:22:13;12.30;99.90
21830;DHT22;11077;50.264;6.798;2022-08-21T00:24:43;12.30;99.90
21830;DHT22;11077;50.264;6.798;2022-08-21T00:27:10;12.20;99.90
21830;DHT22;11077;50.264;6.798;2022-08-21T00:29:38;12.20;99.90
21830;DHT22;11077;50.264;6.798;2022-08-21T00:32:05;12.30;99.90
21830;DHT22;11077;50.264;6.798;2022-08-21T00:34:37;12.20;99.90
21830;DHT22;11077;50.264;6.798;2022-08-21T00:37:04;12.20;99.90
21830;DHT22;11077;50.264;6.798;2022-08-21T00:39:33;12.20;99.90
21830;DHT22;11077;50.264;6.798;2022-08-21T00:42:02;12.10;99.90
21830;DHT22;11077;50.264;6.798;2022-08-21T00:44:33;12.20;99.90
21830;DHT22;11077;50.264;6.798;2022-08-21T00:47:01;12.10;99.90
21830;DHT22;11077;50.264;6.798;2022-08-21T00:49:28;12.10;99.90
21830;DHT22;11077;50.264;6.798;2022-08-21T00:51:59;12.00;99.90
21830;DHT22;11077;50.264;6.798;2022-08-21T00:54:28;12.00;99.90
21830;DHT22;11077;50.264;6.798;2022-08-21T00:57:00;11.90;99.90
21830;DHT22;11077;50.264;6.798;2022-08-21T00:59:31;11.80;99.90
21830;DHT22;11077;50.264;6.798;2022-08-21T01:01:59;11.80;99.90
21830;DHT22;11077;50.264;6.798;2022-08-21T01:04:27;11.80;99.90
21830;DHT22;11077;50.264;6.798;2022-08-21T01:06:55;11.80;99.90
21830;DHT22;11077;50.264;6.798;2022-08-21T01:09:23;11.70;99.90
21830;DHT22;11077;50.264;6.798;2022-08-21T01:11:50;11.70;99.90
21830;DHT22;11077;50.264;6.798;2022-08-21T01:14:18;11.60;99.90
21830;DHT22;11077;50.264;6.798;2022-08-21T01:16:50;11.70;99.90
21830;DHT22;11077;50.264;6.798;2022-08-21T01:19:18;11.60;99.90
21830;DHT22;11077;50.264;6.798;2022-08-21T01:21:48;11.60;99.90
21830;DHT22;11077;50.264;6.798;2022-08-21T01:24:16;11.60;99.90
21830;DHT22;11077;50.264;6.798;2022-08-21T01:26:44;11.50;99.90
21830;DHT22;11077;50.264;6.798;2022-08-21T01:29:15;11.40;99.90
21830;DHT22;11077;50.264;6.798;2022-08-21T01:31:43;11.50;99.90
21830;DHT22;11077;50.264;6.798;2022-08-21T01:34:11;11.50;99.90
21830;DHT22;11077;50.264;6.798;2022-08-21T01:36:40;11.40;99.90
21830;DHT22;11077;50.264;6.798;2022-08-21T01:39:09;11.30;99.90
21830;DHT22;11077;50.264;6.798;2022-08-21T01:41:36;11.30;99.90
21830;DHT22;11077;50.264;6.798;2022-08-21T01:44:04;11.30;99.90
21830;DHT22;11077;50.264;6.798;2022-08-21T01:46:31;11.40;99.90
21830;DHT22;11077;50.264;6.798;2022-08-21T01:48:59;11.30;99.90
21830;DHT22;11077;50.264;6.798;2022-08-21T01:51:26;11.30;99.90
21830;DHT22;11077;50.264;6.798;2022-08-21T01:53:53;11.30;99.90
21830;DHT22;11077;50.264;6.798;2022-08-21T01:56:24;11.20;99.90
21830;DHT22;11077;50.264;6.798;2022-08-21T01:58:51;11.30;99.90
21830;DHT22;11077;50.264;6.798;2022-08-21T02:01:21;11.10;99.90
21830;DHT22;11077;50.264;6.798;2022-08-21T02:03:50;11.10;99.90
21830;DHT22;11077;50.264;6.798;2022-08-21T02:06:18;11.10;99.90
21830;DHT22;11077;50.264;6.798;2022-08-21T02:08:46;11.00;99.90
21830;DHT22;11077;50.264;6.798;2022-08-21T02:11:16;11.00;99.90
21830;DHT22;11077;50.264;6.798;2022-08-21T02:13:46;11.00;99.90
21830;DHT22;11077;50.264;6.798;2022-08-21T02:16:13;11.00;99.90
21830;DHT22;11077;50.264;6.798;2022-08-21T02:18:43;11.00;99.90
21830;DHT22;11077;50.264;6.798;2022-08-21T02:21:11;10.90;99.90
21830;DHT22;11077;50.264;6.798;2022-08-21T02:23:41;10.90;99.90
21830;DHT22;11077;50.264;6.798;2022-08-21T02:26:11;11.00;99.90
21830;DHT22;11077;50.264;6.798;2022-08-21T02:28:41;10.90;99.90
21830;DHT22;11077;50.264;6.798;2022-08-21T02:31:10;10.90;99.90
21830;DHT22;11077;50.264;6.798;2022-08-21T02:33:38;10.80;99.90
21830;DHT22;11077;50.264;6.798;2022-08-21T02:36:07;10.80;99.90
21830;DHT22;11077;50.264;6.798;2022-08-21T02:38:35;10.80;99.90
21830;DHT22;11077;50.264;6.798;2022-08-21T02:41:04;10.80;99.90
21830;DHT22;11077;50.264;6.798;2022-08-21T02:43:33;10.80;99.90
21830;DHT22;11077;50.264;6.798;2022-08-21T02:46:03;10.80;99.90
21830;DHT22;11077;50.264;6.798;2022-08-21T02:48:34;10.80;99.90
21830;DHT22;11077;50.264;6.798;2022-08-21T02:51:04;10.80;99.90
21830;DHT22;11077;50.264;6.798;2022-08-21T02:53:43;10.70;99.90
21830;DHT22;11077;50.264;6.798;2022-08-21T02:56:14;10.70;99.90
21830;DHT22;11077;50.264;6.798;2022-08-21T02:58:45;10.70;99.90
21830;DHT22;11077;50.264;6.798;2022-08-21T03:01:13;10.70;99.90
21830;DHT22;11077;50.264;6.798;2022-08-21T03:03:44;10.70;99.90
21830;DHT22;11077;50.264;6.798;2022-08-21T03:06:14;10.80;99.90
21830;DHT22;11077;50.264;6.798;2022-08-21T03:08:42;10.70;99.90
21830;DHT22;11077;50.264;6.798;2022-08-21T03:11:11;10.70;99.90
21830;DHT22;11077;50.264;6.798;2022-08-21T03:13:39;10.70;99.90
21830;DHT22;11077;50.264;6.798;2022-08-21T03:16:06;10.70;99.90
21830;DHT22;11077;50.264;6.798;2022-08-21T03:18:34;10.60;99.90
21830;DHT22;11077;50.264;6.798;2022-08-21T03:21:03;10.60;99.90
21830;DHT22;11077;50.264;6.798;2022-08-21T03:23:31;10.60;99.90
21830;DHT22;11077;50.264;6.798;2022-08-21T03:25:59;10.50;99.90
21830;DHT22;11077;50.264;6.798;2022-08-21T03:28:27;10.50;99.90
21830;DHT22;11077;50.264;6.798;2022-08-21T03:30:54;10.40;99.90
21830;DHT22;11077;50.264;6.798;2022-08-21T03:33:22;10.40;99.90
21830;DHT22;11077;50.264;6.798;2022-08-21T03:35:56;10.40;99.90
21830;DHT22;11077;50.264;6.798;2022-08-21T03:38:29;10.30;99.90
21830;DHT22;11077;50.264;6.798;2022-08-21T03:40:57;10.30;99.90
21830;DHT22;11077;50.264;6.798;2022-08-21T03:43:24;10.30;99.90
21830;DHT22;11077;50.264;6.798;2022-08-21T03:45:52;10.30;99.90
21830;DHT22;11077;50.264;6.798;2022-08-21T03:48:19;10.40;99.90
21830;DHT22;11077;50.264;6.798;2022-08-21T03:50:47;10.40;99.90
21830;DHT22;11077;50.264;6.798;2022-08-21T03:53:16;10.40;99.90
21830;DHT22;11077;50.264;6.798;2022-08-21T03:55:45;10.30;99.90
21830;DHT22;11077;50.264;6.798;2022-08-21T03:58:17;10.30;99.90
21830;DHT22;11077;50.264;6.798;2022-08-21T04:00:52;10.20;99.90
21830;DHT22;11077;50.264;6.798;2022-08-21T04:03:20;10.20;99.90
21830;DHT22;11077;50.264;6.798;2022-08-21T04:05:51;10.10;99.90
21830;DHT22;11077;50.264;6.798;2022-08-21T04:08:22;10.10;99.90
21830;DHT22;11077;50.264;6.798;2022-08-21T04:10:56;10.10;99.90
21830;DHT22;11077;50.264;6.798;2022-08-21T04:13:25;10.10;99.90
21830;DHT22;11077;50.264;6.798;2022-08-21T04:15:54;10.10;99.90
21830;DHT22;11077;50.264;6.798;2022-08-21T04:18:21;10.10;99.90
21830;DHT22;11077;50.264;6.798;2022-08-21T04:20:51;10.20;99.90
21830;DHT22;11077;50.264;6.798;2022-08-21T04:23:19;10.20;99.90
21830;DHT22;11077;50.264;6.798;2022-08-21T04:25:47;10.20;99.90
21830;DHT22;11077;50.264;6.798;2022-08-21T04:28:16;10.10;99.90
21830;DHT22;11077;50.264;6.798;2022-08-21T04:30:43;10.10;99.90
21830;DHT22;11077;50.264;6.798;2022-08-21T04:33:11;10.10;99.90
21830;DHT22;11077;50.264;6.798;2022-08-21T04:35:38;10.00;99.90
21830;DHT22;11077;50.264;6.798;2022-08-21T04:38:07;10.00;99.90
21830;DHT22;11077;50.264;6.798;2022-08-21T04:40:35;10.00;99.90
21830;DHT22;11077;50.264;6.798;2022-08-21T04:43:05;10.00;99.90
21830;DHT22;11077;50.264;6.798;2022-08-21T04:45:37;10.00;99.90
21830;DHT22;11077;50.264;6.798;2022-08-21T04:48:06;10.00;99.90
21830;DHT22;11077;50.264;6.798;2022-08-21T04:50:37;10.00;99.90
21830;DHT22;11077;50.264;6.798;2022-08-21T04:53:08;10.00;99.90
21830;DHT22;11077;50.264;6.798;2022-08-21T04:55:41;10.00;99.90
21830;DHT22;11077;50.264;6.798;2022-08-21T04:58:11;10.00;99.90
21830;DHT22;11077;50.264;6.798;2022-08-21T05:00:56;10.00;99.90
21830;DHT22;11077;50.264;6.798;2022-08-21T05:03:27;10.00;99.90
21830;DHT22;11077;50.264;6.798;2022-08-21T05:05:57;10.00;99.90
21830;DHT22;11077;50.264;6.798;2022-08-21T05:08:25;10.00;99.90
21830;DHT22;11077;50.264;6.798;2022-08-21T05:10:54;10.10;99.90
21830;DHT22;11077;50.264;6.798;2022-08-21T05:13:22;9.90;99.90
21830;DHT22;11077;50.264;6.798;2022-08-21T05:15:52;10.10;99.90
21830;DHT22;11077;50.264;6.798;2022-08-21T05:18:21;10.10;99.90
21830;DHT22;11077;50.264;6.798;2022-08-21T05:20:51;10.00;99.90
21830;DHT22;11077;50.264;6.798;2022-08-21T05:23:21;10.00;99.90
21830;DHT22;11077;50.264;6.798;2022-08-21T05:25:48;10.00;99.90
21830;DHT22;11077;50.264;6.798;2022-08-21T05:28:16;10.00;99.90
21830;DHT22;11077;50.264;6.798;2022-08-21T05:30:44;10.10;99.90
21830;DHT22;11077;50.264;6.798;2022-08-21T05:33:34;10.10;99.90
21830;DHT22;11077;50.264;6.798;2022-08-21T05:36:16;10.10;99.90
21830;DHT22;11077;50.264;6.798;2022-08-21T05:38:51;10.10;99.90
21830;DHT22;11077;50.264;6.798;2022-08-21T05:41:19;10.10;99.90
21830;DHT22;11077;50.264;6.798;2022-08-21T05:43:47;10.20;99.90
21830;DHT22;11077;50.264;6.798;2022-08-21T05:46:15;10.20;99.90
21830;DHT22;11077;50.264;6.798;2022-08-21T05:48:44;10.30;99.90
21830;DHT22;11077;50.264;6.798;2022-08-21T05:51:13;10.30;99.90
21830;DHT22;11077;50.264;6.798;2022-08-21T05:53:42;10.40;99.90
21830;DHT22;11077;50.264;6.798;2022-08-21T05:56:12;10.40;99.90
21830;DHT22;11077;50.264;6.798;2022-08-21T05:58:39;10.50;99.90
21830;DHT22;11077;50.264;6.798;2022-08-21T06:01:07;10.60;99.90
21830;DHT22;11077;50.264;6.798;2022-08-21T06:03:38;10.70;99.90
21830;DHT22;11077;50.264;6.798;2022-08-21T06:06:07;10.80;99.90
21830;DHT22;11077;50.264;6.798;2022-08-21T06:08:36;10.90;99.90
21830;DHT22;11077;50.264;6.798;2022-08-21T06:11:04;11.00;99.90
21830;DHT22;11077;50.264;6.798;2022-08-21T06:13:33;11.10;99.90
21830;DHT22;11077;50.264;6.798;2022-08-21T06:16:06;11.30;99.90
21830;DHT22;11077;50.264;6.798;2022-08-21T06:18:37;11.40;99.90
21830;DHT22;11077;50.264;6.798;2022-08-21T06:21:13;11.40;99.90
21830;DHT22;11077;50.264;6.798;2022-08-21T06:23:52;11.70;99.90
21830;DHT22;11077;50.264;6.798;2022-08-21T06:26:27;11.80;99.90
21830;DHT22;11077;50.264;6.798;2022-08-21T06:28:56;12.00;99.90
21830;DHT22;11077;50.264;6.798;2022-08-21T06:31:33;12.20;99.90
21830;DHT22;11077;50.264;6.798;2022-08-21T06:34:04;12.40;99.90
21830;DHT22;11077;50.264;6.798;2022-08-21T06:36:33;12.60;99.90
21830;DHT22;11077;50.264;6.798;2022-08-21T06:39:01;12.90;99.90
21830;DHT22;11077;50.264;6.798;2022-08-21T06:41:47;13.10;99.90
21830;DHT22;11077;50.264;6.798;2022-08-21T06:44:37;13.40;99.90
21830;DHT22;11077;50.264;6.798;2022-08-21T06:47:08;13.70;99.90
21830;DHT22;11077;50.264;6.798;2022-08-21T06:49:41;13.90;99.90
21830;DHT22;11077;50.264;6.798;2022-08-21T06:52:26;14.20;99.90
21830;DHT22;11077;50.264;6.798;2022-08-21T06:54:57;14.50;99.90
21830;DHT22;11077;50.264;6.798;2022-08-21T06:57:24;14.70;99.90
21830;DHT22;11077;50.264;6.798;2022-08-21T06:59:52;14.90;99.90
21830;DHT22;11077;50.264;6.798;2022-08-21T07:02:28;15.10;99.90
21830;DHT22;11077;50.264;6.798;2022-08-21T07:04:55;15.30;99.90
21830;DHT22;11077;50.264;6.798;2022-08-21T07:07:28;15.50;99.90
21830;DHT22;11077;50.264;6.798;2022-08-21T07:10:06;15.60;99.90
21830;DHT22;11077;50.264;6.798;2022-08-21T07:12:36;15.80;99.90
21830;DHT22;11077;50.264;6.798;2022-08-21T07:15:07;15.90;99.90
21830;DHT22;11077;50.264;6.798;2022-08-21T07:17:38;16.10;99.90
21830;DHT22;11077;50.264;6.798;2022-08-21T07:20:09;16.20;99.90
21830;DHT22;11077;50.264;6.798;2022-08-21T07:22:47;16.30;99.90
21830;DHT22;11077;50.264;6.798;2022-08-21T07:25:14;16.50;99.90
21830;DHT22;11077;50.264;6.798;2022-08-21T07:27:44;16.60;99.90
21830;DHT22;11077;50.264;6.798;2022-08-21T07:30:12;16.80;99.90
21830;DHT22;11077;50.264;6.798;2022-08-21T07:32:40;17.00;99.90
21830;DHT22;11077;50.264;6.798;2022-08-21T07:35:08;17.10;99.90
21830;DHT22;11077;50.264;6.798;2022-08-21T07:37:35;17.20;99.90
21830;DHT22;11077;50.264;6.798;2022-08-21T07:40:05;17.40;99.90
21830;DHT22;11077;50.264;6.798;2022-08-21T07:42:42;17.50;99.90
21830;DHT22;11077;50.264;6.798;2022-08-21T07:45:19;17.50;99.90
21830;DHT22;11077;50.264;6.798;2022-08-21T07:47:48;17.70;99.90
21830;DHT22;11077;50.264;6.798;2022-08-21T07:50:16;17.80;99.90
21830;DHT22;11077;50.264;6.798;2022-08-21T07:52:44;17.90;99.90
21830;DHT22;11077;50.264;6.798;2022-08-21T07:55:16;18.00;99.90
21830;DHT22;11077;50.264;6.798;2022-08-21T07:57:47;18.10;99.90
21830;DHT22;11077;50.264;6.798;2022-08-21T08:00:19;18.20;99.90
21830;DHT22;11077;50.264;6.798;2022-08-21T08:02:59;18.30;99.90
21830;DHT22;11077;50.264;6.798;2022-08-21T08:05:42;18.40;99.90
21830;DHT22;11077;50.264;6.798;2022-08-21T08:08:16;18.50;99.90
21830;DHT22;11077;50.264;6.798;2022-08-21T08:10:59;18.70;99.90
21830;DHT22;11077;50.264;6.798;2022-08-21T08:13:30;18.80;99.90
21830;DHT22;11077;50.264;6.798;2022-08-21T08:16:21;18.90;99.90
21830;DHT22;11077;50.264;6.798;2022-08-21T08:18:48;18.80;99.90
21830;DHT22;11077;50.264;6.798;2022-08-21T08:21:17;18.90;99.90
21830;DHT22;11077;50.264;6.798;2022-08-21T08:23:47;19.00;99.90
21830;DHT22;11077;50.264;6.798;2022-08-21T08:26:17;19.10;99.90
21830;DHT22;11077;50.264;6.798;2022-08-21T08:28:45;19.20;99.90
21830;DHT22;11077;50.264;6.798;2022-08-21T08:31:13;19.40;99.90
21830;DHT22;11077;50.264;6.798;2022-08-21T08:33:43;19.60;99.90
21830;DHT22;11077;50.264;6.798;2022-08-21T08:36:15;19.80;99.90
21830;DHT22;11077;50.264;6.798;2022-08-21T08:38:43;20.00;99.90
21830;DHT22;11077;50.264;6.798;2022-08-21T08:41:18;20.10;99.90
21830;DHT22;11077;50.264;6.798;2022-08-21T08:43:51;20.20;99.90
21830;DHT22;11077;50.264;6.798;2022-08-21T08:46:30;20.30;99.90
21830;DHT22;11077;50.264;6.798;2022-08-21T08:49:03;20.30;99.90
21830;DHT22;11077;50.264;6.798;2022-08-21T08:51:42;20.20;99.90
21830;DHT22;11077;50.264;6.798;2022-08-21T08:54:14;20.30;99.90
21830;DHT22;11077;50.264;6.798;2022-08-21T08:56:45;20.40;99.90
21830;DHT22;11077;50.264;6.798;2022-08-21T08:59:16;20.50;99.90
21830;DHT22;11077;50.264;6.798;2022-08-21T09:01:46;20.60;99.90
21830;DHT22;11077;50.264;6.798;2022-08-21T09:04:22;20.80;99.90
21830;DHT22;11077;50.264;6.798;2022-08-21T09:14:47;21.20;98.80
21830;DHT22;11077;50.264;6.798;2022-08-21T09:17:27;21.50;99.00
21830;DHT22;11077;50.264;6.798;2022-08-21T09:20:11;21.70;98.40
21830;DHT22;11077;50.264;6.798;2022-08-21T09:22:50;21.90;97.20
21830;DHT22;11077;50.264;6.798;2022-08-21T09:25:22;22.20;97.80
21830;DHT22;11077;50.264;6.798;2022-08-21T09:27:51;22.40;96.30
21830;DHT22;11077;50.264;6.798;2022-08-21T09:30:27;22.60;96.20
21830;DHT22;11077;50.264;6.798;2022-08-21T09:32:54;22.70;96.20
21830;DHT22;11077;50.264;6.798;2022-08-21T09:35:23;22.80;96.50
21830;DHT22;11077;50.264;6.798;2022-08-21T09:37:54;23.10;96.40
21830;DHT22;11077;50.264;6.798;2022-08-21T09:40:35;23.40;94.60
21830;DHT22;11077;50.264;6.798;2022-08-21T09:43:06;23.60;94.60
21830;DHT22;11077;50.264;6.798;2022-08-21T09:45:35;23.70;93.10
21830;DHT22;11077;50.264;6.798;2022-08-21T09:48:11;23.90;93.10
21830;DHT22;11077;50.264;6.798;2022-08-21T09:50:40;24.00;93.30
21830;DHT22;11077;50.264;6.798;2022-08-21T09:53:16;23.90;93.20
21830;DHT22;11077;50.264;6.798;2022-08-21T09:55:49;24.00;93.50
21830;DHT22;11077;50.264;6.798;2022-08-21T09:58:37;23.90;92.80
21830;DHT22;11077;50.264;6.798;2022-08-21T10:01:13;23.90;92.80
21830;DHT22;11077;50.264;6.798;2022-08-21T10:03:41;23.80;92.90
21830;DHT22;11077;50.264;6.798;2022-08-21T10:06:09;23.70;92.10
21830;DHT22;11077;50.264;6.798;2022-08-21T10:08:40;23.40;91.20
21830;DHT22;11077;50.264;6.798;2022-08-21T10:11:09;23.10;91.40
21830;DHT22;11077;50.264;6.798;2022-08-21T10:13:47;23.00;91.40
21830;DHT22;11077;50.264;6.798;2022-08-21T10:16:29;23.10;92.00
21830;DHT22;11077;50.264;6.798;2022-08-21T10:19:13;23.60;92.50
21830;DHT22;11077;50.264;6.798;2022-08-21T10:21:57;24.00;90.40
21830;DHT22;11077;50.264;6.798;2022-08-21T10:24:31;24.30;90.70
21830;DHT22;11077;50.264;6.798;2022-08-21T10:27:06;24.60;90.40
21830;DHT22;11077;50.264;6.798;2022-08-21T10:29:46;24.70;90.10
21830;DHT22;11077;50.264;6.798;2022-08-21T10:35:18;24.90;89.70
21830;DHT22;11077;50.264;6.798;2022-08-21T10:37:56;25.10;88.80
21830;DHT22;11077;50.264;6.798;2022-08-21T10:40:29;25.50;89.30
21830;DHT22;11077;50.264;6.798;2022-08-21T10:43:16;25.70;87.40
21830;DHT22;11077;50.264;6.798;2022-08-21T10:45:55;25.90;85.20
21830;DHT22;11077;50.264;6.798;2022-08-21T10:48:31;26.30;86.20
21830;DHT22;11077;50.264;6.798;2022-08-21T10:51:06;26.50;84.30
21830;DHT22;11077;50.264;6.798;2022-08-21T10:53:52;26.50;84.10
21830;DHT22;11077;50.264;6.798;2022-08-21T10:56:23;26.70;83.10
21830;DHT22;11077;50.264;6.798;2022-08-21T10:59:02;26.50;81.40
21830;DHT22;11077;50.264;6.798;2022-08-21T11:01:41;26.30;81.80
21830;DHT22;11077;50.264;6.798;2022-08-21T11:04:16;26.60;82.20
21830;DHT22;11077;50.264;6.798;2022-08-21T11:06:49;26.00;82.00
21830;DHT22;11077;50.264;6.798;2022-08-21T11:09:22;25.90;83.50
21830;DHT22;11077;50.264;6.798;2022-08-21T11:11:55;26.20;83.00
21830;DHT22;11077;50.264;6.798;2022-08-21T11:14:34;26.30;80.80
21830;DHT22;11077;50.264;6.798;2022-08-21T11:17:09;26.30;81.60
21830;DHT22;11077;50.264;6.798;2022-08-21T11:19:46;26.40;81.70
21830;DHT22;11077;50.264;6.798;2022-08-21T11:22:21;26.10;82.00
21830;DHT22;11077;50.264;6.798;2022-08-21T11:24:56;26.10;82.90
21830;DHT22;11077;50.264;6.798;2022-08-21T11:27:27;26.10;82.20
21830;DHT22;11077;50.264;6.798;2022-08-21T11:29:59;26.20;82.50
21830;DHT22;11077;50.264;6.798;2022-08-21T11:32:54;26.40;81.10
21830;DHT22;11077;50.264;6.798;2022-08-21T11:35:32;26.70;81.70
21830;DHT22;11077;50.264;6.798;2022-08-21T11:38:27;27.00;79.30
21830;DHT22;11077;50.264;6.798;2022-08-21T11:41:06;27.20;79.10
21830;DHT22;11077;50.264;6.798;2022-08-21T11:43:39;27.20;79.60
21830;DHT22;11077;50.264;6.798;2022-08-21T11:46:31;27.10;78.50
21830;DHT22;11077;50.264;6.798;2022-08-21T11:49:26;26.60;79.00
21830;DHT22;11077;50.264;6.798;2022-08-21T11:52:07;26.40;78.50
21830;DHT22;11077;50.264;6.798;2022-08-21T11:54:38;26.20;77.80
21830;DHT22;11077;50.264;6.798;2022-08-21T11:57:15;26.10;79.00
21830;DHT22;11077;50.264;6.798;2022-08-21T11:59:48;26.60;78.20
21830;DHT22;11077;50.264;6.798;2022-08-21T12:02:19;26.80;75.90
21830;DHT22;11077;50.264;6.798;2022-08-21T12:04:51;26.70;76.30
21830;DHT22;11077;50.264;6.798;2022-08-21T12:07:33;26.90;77.10
21830;DHT22;11077;50.264;6.798;2022-08-21T12:10:05;27.20;76.40
21830;DHT22;11077;50.264;6.798;2022-08-21T12:12:34;27.40;76.30
21830;DHT22;11077;50.264;6.798;2022-08-21T12:15:26;27.70;76.80
21830;DHT22;11077;50.264;6.798;2022-08-21T12:17:58;28.00;76.10
21830;DHT22;11077;50.264;6.798;2022-08-21T12:20:42;27.90;75.30
21830;DHT22;11077;50.264;6.798;2022-08-21T12:23:25;28.00;75.00
21830;DHT22;11077;50.264;6.798;2022-08-21T12:26:16;28.30;75.30
21830;DHT22;11077;50.264;6.798;2022-08-21T12:28:45;28.30;76.20
21830;DHT22;11077;50.264;6.798;2022-08-21T12:31:22;28.50;75.50
21830;DHT22;11077;50.264;6.798;2022-08-21T12:33:54;28.30;75.00
21830;DHT22;11077;50.264;6.798;2022-08-21T12:36:24;28.10;75.90
21830;DHT22;11077;50.264;6.798;2022-08-21T12:38:57;28.10;76.00
21830;DHT22;11077;50.264;6.798;2022-08-21T12:41:28;28.00;74.50
21830;DHT22;11077;50.264;6.798;2022-08-21T12:43:59;27.40;75.60
21830;DHT22;11077;50.264;6.798;2022-08-21T12:46:32;27.30;76.50
21830;DHT22;11077;50.264;6.798;2022-08-21T12:49:06;27.10;76.60
21830;DHT22;11077;50.264;6.798;2022-08-21T12:51:42;27.10;76.40
21830;DHT22;11077;50.264;6.798;2022-08-21T12:54:22;27.10;76.60
21830;DHT22;11077;50.264;6.798;2022-08-21T12:56:58;26.90;76.70
21830;DHT22;11077;50.264;6.798;2022-08-21T12:59:25;26.70;76.30
21830;DHT22;11077;50.264;6.798;2022-08-21T13:01:53;26.70;76.50
21830;DHT22;11077;50.264;6.798;2022-08-21T13:04:23;26.80;76.10
21830;DHT22;11077;50.264;6.798;2022-08-21T13:06:54;26.80;76.40
21830;DHT22;11077;50.264;6.798;2022-08-21T13:09:28;26.80;75.80
21830;DHT22;11077;50.264;6.798;2022-08-21T13:15:24;26.30;74.00
21830;DHT22;11077;50.264;6.798;2022-08-21T13:17:52;26.00;76.30
21830;DHT22;11077;50.264;6.798;2022-08-21T13:20:21;26.00;76.80
21830;DHT22;11077;50.264;6.798;2022-08-21T13:22:49;25.90;77.50
21830;DHT22;11077;50.264;6.798;2022-08-21T13:25:20;25.90;76.50
21830;DHT22;11077;50.264;6.798;2022-08-21T13:27:58;25.80;76.00
21830;DHT22;11077;50.264;6.798;2022-08-21T13:30:26;25.70;75.60
21830;DHT22;11077;50.264;6.798;2022-08-21T13:33:00;25.60;75.30
21830;DHT22;11077;50.264;6.798;2022-08-21T13:35:31;25.50;75.00
21830;DHT22;11077;50.264;6.798;2022-08-21T13:38:03;25.40;75.30
21830;DHT22;11077;50.264;6.798;2022-08-21T13:41:03;25.50;75.50
21830;DHT22;11077;50.264;6.798;2022-08-21T13:43:34;25.70;75.60
21830;DHT22;11077;50.264;6.798;2022-08-21T13:46:09;25.80;75.80
21830;DHT22;11077;50.264;6.798;2022-08-21T13:48:37;25.70;74.40
21830;DHT22;11077;50.264;6.798;2022-08-21T13:51:05;25.50;76.80
21830;DHT22;11077;50.264;6.798;2022-08-21T13:53:44;25.50;78.00
21830;DHT22;11077;50.264;6.798;2022-08-21T13:56:23;25.50;78.90
21830;DHT22;11077;50.264;6.798;2022-08-21T13:58:52;25.60;77.40
21830;DHT22;11077;50.264;6.798;2022-08-21T14:01:22;25.70;77.30
21830;DHT22;11077;50.264;6.798;2022-08-21T14:03:53;25.60;76.30
21830;DHT22;11077;50.264;6.798;2022-08-21T14:06:26;25.70;76.90
21830;DHT22;11077;50.264;6.798;2022-08-21T14:08:56;25.60;76.20
21830;DHT22;11077;50.264;6.798;2022-08-21T14:11:32;25.70;76.90
21830;DHT22;11077;50.264;6.798;2022-08-21T14:14:01;25.70;76.80
21830;DHT22;11077;50.264;6.798;2022-08-21T14:16:42;25.80;76.80
21830;DHT22;11077;50.264;6.798;2022-08-21T14:19:17;25.90;76.20
21830;DHT22;11077;50.264;6.798;2022-08-21T14:21:45;26.00;76.90
21830;DHT22;11077;50.264;6.798;2022-08-21T14:24:14;26.10;76.00
21830;DHT22;11077;50.264;6.798;2022-08-21T14:26:49;26.10;75.40
21830;DHT22;11077;50.264;6.798;2022-08-21T14:29:19;26.00;75.80
21830;DHT22;11077;50.264;6.798;2022-08-21T14:31:50;26.00;76.30
21830;DHT22;11077;50.264;6.798;2022-08-21T14:34:18;25.90;74.30
21830;DHT22;11077;50.264;6.798;2022-08-21T14:36:46;25.80;75.70
21830;DHT22;11077;50.264;6.798;2022-08-21T14:39:14;25.80;76.70
21830;DHT22;11077;50.264;6.798;2022-08-21T14:41:41;25.90;76.20
21830;DHT22;11077;50.264;6.798;2022-08-21T14:44:13;26.10;76.80
21830;DHT22;11077;50.264;6.798;2022-08-21T14:46:40;26.10;75.60
21830;DHT22;11077;50.264;6.798;2022-08-21T14:49:08;26.20;76.60
21830;DHT22;11077;50.264;6.798;2022-08-21T14:51:36;26.20;76.40
21830;DHT22;11077;50.264;6.798;2022-08-21T14:54:05;26.20;76.10
21830;DHT22;11077;50.264;6.798;2022-08-21T14:56:32;26.30;76.10
21830;DHT22;11077;50.264;6.798;2022-08-21T14:59:03;26.20;76.10
21830;DHT22;11077;50.264;6.798;2022-08-21T15:01:35;26.20;75.90
21830;DHT22;11077;50.264;6.798;2022-08-21T15:04:03;26.00;76.30
21830;DHT22;11077;50.264;6.798;2022-08-21T15:06:30;26.00;77.10
21830;DHT22;11077;50.264;6.798;2022-08-21T15:08:58;26.00;77.00
21830;DHT22;11077;50.264;6.798;2022-08-21T15:11:27;26.10;76.80
21830;DHT22;11077;50.264;6.798;2022-08-21T15:13:56;26.30;76.00
21830;DHT22;11077;50.264;6.798;2022-08-21T15:16:26;26.30;75.00
21830;DHT22;11077;50.264;6.798;2022-08-21T15:18:55;26.30;75.40
21830;DHT22;11077;50.264;6.798;2022-08-21T15:21:22;26.20;75.60
21830;DHT22;11077;50.264;6.798;2022-08-21T15:23:49;26.20;74.20
21830;DHT22;11077;50.264;6.798;2022-08-21T15:26:16;26.00;74.40
21830;DHT22;11077;50.264;6.798;2022-08-21T15:28:44;25.80;74.70
21830;DHT22;11077;50.264;6.798;2022-08-21T15:31:12;25.70;76.70
21830;DHT22;11077;50.264;6.798;2022-08-21T15:33:39;25.70;76.40
21830;DHT22;11077;50.264;6.798;2022-08-21T15:36:08;25.70;76.60
21830;DHT22;11077;50.264;6.798;2022-08-21T15:38:35;25.60;76.20
21830;DHT22;11077;50.264;6.798;2022-08-21T15:41:03;25.50;76.10
21830;DHT22;11077;50.264;6.798;2022-08-21T15:43:43;25.40;76.80
21830;DHT22;11077;50.264;6.798;2022-08-21T15:46:13;25.40;77.10
21830;DHT22;11077;50.264;6.798;2022-08-21T15:48:42;25.30;77.10
21830;DHT22;11077;50.264;6.798;2022-08-21T15:51:14;25.30;77.10
21830;DHT22;11077;50.264;6.798;2022-08-21T15:53:42;25.30;77.10
21830;DHT22;11077;50.264;6.798;2022-08-21T15:56:21;25.30;76.30
21830;DHT22;11077;50.264;6.798;2022-08-21T15:58:49;25.20;77.60
21830;DHT22;11077;50.264;6.798;2022-08-21T16:01:16;25.00;77.80
21830;DHT22;11077;50.264;6.798;2022-08-21T16:03:47;24.90;77.40
21830;DHT22;11077;50.264;6.798;2022-08-21T16:06:17;24.70;77.00
21830;DHT22;11077;50.264;6.798;2022-08-21T16:08:44;24.70;77.30
21830;DHT22;11077;50.264;6.798;2022-08-21T16:11:13;24.80;78.00
21830;DHT22;11077;50.264;6.798;2022-08-21T16:13:43;24.70;77.70